Time;durP1;ratioP1;P1;durP2;ratioP2;P2;SDS_P1;SDS_P2;PMS_P1;PMS_P2;Temp;Humidity;BMP_temperature;BMP_pressure;BME280_temperature;BME280_humidity;BME280_pressure;Samples;Min_cycle;Max_cycle;Signal;HPM_P1;HPM_P2
2022/03/04 00:02:43;;;;;;;27.85;16.30;;;2.00;91.00;;;;;;6212761;23;20666;-69
2022/03/04 00:05:28;;;;;;;25.00;16.77;;;2.00;91.50;;;;;;6212734;23;20539;-68
2022/03/04 00:08:15;;;;;;;25.08;15.90;;;2.10;91.10;;;;;;6213627;23;20170;-69
2022/03/04 00:11:02;;;;;;;28.40;17.85;;;2.10;91.20;;;;;;6213695;23;20477;-69
2022/03/04 00:13:48;;;;;;;27.50;16.23;;;2.10;91.00;;;;;;6211073;23;20171;-69
2022/03/04 00:16:33;;;;;;;25.92;17.85;;;2.20;90.40;;;;;;6213591;23;20210;-70
2022/03/04 00:19:19;;;;;;;27.00;16.20;;;2.30;90.20;;;;;;6213110;23;20186;-68
2022/03/04 00:22:06;;;;;;;22.80;15.82;;;2.30;90.20;;;;;;6213694;23;20168;-69
2022/03/04 00:24:54;;;;;;;27.42;17.48;;;2.40;88.40;;;;;;6212130;23;20168;-69
2022/03/04 00:27:40;;;;;;;27.70;18.08;;;2.30;88.40;;;;;;6213650;23;20196;-68
2022/03/04 00:30:25;;;;;;;31.92;19.65;;;2.30;87.80;;;;;;6213432;23;20167;-69
2022/03/04 00:33:11;;;;;;;27.92;17.65;;;2.30;88.40;;;;;;6211130;23;20209;-68
2022/03/04 00:35:57;;;;;;;29.00;16.45;;;2.20;88.30;;;;;;6213256;23;20245;-68
2022/03/04 00:38:42;;;;;;;27.65;18.15;;;2.20;88.60;;;;;;6213481;23;20218;-70
2022/03/04 00:41:29;;;;;;;24.88;16.45;;;2.20;89.50;;;;;;6213774;23;20170;-69
2022/03/04 00:44:15;;;;;;;24.65;16.67;;;2.30;90.00;;;;;;6209987;23;20165;-68
2022/03/04 00:47:01;;;;;;;26.98;17.80;;;2.30;90.20;;;;;;6213861;23;20709;-69
2022/03/04 00:49:46;;;;;;;29.25;17.88;;;2.30;90.00;;;;;;6212984;23;20182;-69
2022/03/04 00:52:32;;;;;;;27.05;18.15;;;2.30;89.40;;;;;;6211211;23;20514;-68
2022/03/04 00:55:17;;;;;;;30.08;19.50;;;2.30;89.00;;;;;;6212532;23;20167;-69
2022/03/04 00:58:06;;;;;;;26.50;17.27;;;2.30;89.50;;;;;;6213314;23;20710;-68
2022/03/04 01:00:52;;;;;;;28.30;17.92;;;2.40;88.60;;;;;;6213098;23;20188;-69
2022/03/04 01:03:37;;;;;;;33.40;18.93;;;2.30;89.40;;;;;;6210702;23;20172;-69
2022/03/04 01:06:23;;;;;;;30.17;19.50;;;2.30;89.70;;;;;;6212811;23;20838;-69
2022/03/04 01:09:09;;;;;;;34.28;17.95;;;2.40;88.70;;;;;;6213153;23;20183;-71
2022/03/04 01:11:54;;;;;;;26.58;18.38;;;2.40;88.40;;;;;;6211813;23;20174;-72
2022/03/04 01:14:42;;;;;;;32.03;17.92;;;2.40;88.10;;;;;;6212673;23;20238;-68
2022/03/04 01:17:27;;;;;;;30.70;18.92;;;2.50;87.70;;;;;;6213259;23;20454;-69
2022/03/04 01:20:13;;;;;;;27.65;18.85;;;2.50;87.90;;;;;;6213060;23;20188;-69
2022/03/04 01:22:58;;;;;;;27.23;19.07;;;2.40;86.30;;;;;;6210422;23;20678;-68
2022/03/04 01:25:44;;;;;;;28.60;20.00;;;2.50;86.40;;;;;;6213111;23;20977;-68
2022/03/04 01:28:30;;;;;;;28.42;17.65;;;2.60;86.60;;;;;;6212985;23;20171;-70
2022/03/04 01:31:16;;;;;;;33.95;20.75;;;2.70;86.20;;;;;;6214320;23;20167;-68
2022/03/04 01:34:02;;;;;;;33.55;21.58;;;2.60;85.90;;;;;;6213105;23;20172;-70
2022/03/04 01:36:48;;;;;;;28.67;18.38;;;2.70;85.30;;;;;;6215163;23;20682;-69
2022/03/04 01:39:33;;;;;;;41.80;20.63;;;2.80;85.10;;;;;;6214770;23;20166;-69
2022/03/04 01:42:19;;;;;;;32.42;20.20;;;2.90;84.20;;;;;;6213330;23;20621;-68
2022/03/04 01:45:07;;;;;;;37.55;20.23;;;2.90;83.20;;;;;;6212992;23;20171;-69
2022/03/04 01:47:54;;;;;;;30.95;18.85;;;3.10;80.40;;;;;;6215068;23;20172;-69
2022/03/04 01:50:40;;;;;;;33.38;19.73;;;3.10;80.40;;;;;;6215041;23;20166;-69
2022/03/04 01:53:26;;;;;;;29.17;19.02;;;3.20;79.00;;;;;;6213508;23;20172;-69
2022/03/04 01:56:11;;;;;;;29.00;18.85;;;3.30;78.40;;;;;;6214495;23;20251;-69
2022/03/04 01:58:57;;;;;;;31.00;19.40;;;3.40;76.80;;;;;;6214780;23;20183;-69
2022/03/04 02:01:43;;;;;;;30.25;19.10;;;3.40;76.40;;;;;;6211098;23;20286;-70
2022/03/04 02:04:30;;;;;;;36.15;19.17;;;3.40;76.00;;;;;;6214400;23;20218;-69
2022/03/04 02:07:16;;;;;;;30.48;19.95;;;3.40;75.30;;;;;;6215027;23;20218;-68
2022/03/04 02:10:01;;;;;;;33.33;20.65;;;3.50;75.00;;;;;;6220952;22;20457;-71
2022/03/04 02:12:47;;;;;;;32.13;19.10;;;3.40;74.20;;;;;;6242655;23;20175;-72
2022/03/04 02:15:32;;;;;;;29.95;20.05;;;3.40;75.30;;;;;;6245332;23;20184;-71
2022/03/04 02:18:18;;;;;;;31.27;19.65;;;3.30;76.00;;;;;;6244868;23;20175;-69
2022/03/04 02:21:11;;;;;;;33.70;19.47;;;3.20;75.60;;;;;;6242661;22;20252;-71
2022/03/04 02:23:58;;;;;;;29.95;20.05;;;3.20;76.00;;;;;;6244486;23;20464;-71
2022/03/04 02:26:44;;;;;;;31.13;20.60;;;3.20;76.00;;;;;;6245003;23;20553;-71
2022/03/04 02:29:34;;;;;;;34.13;22.20;;;3.10;76.00;;;;;;6244824;23;20170;-71
2022/03/04 02:32:20;;;;;;;37.80;22.20;;;3.10;76.80;;;;;;6242826;23;20724;-71
2022/03/04 02:35:06;;;;;;;33.95;19.98;;;3.10;77.10;;;;;;6243941;23;20162;-70
2022/03/04 02:37:52;;;;;;;30.85;19.65;;;3.10;77.60;;;;;;6244856;23;20291;-71
2022/03/04 02:40:39;;;;;;;34.35;21.25;;;3.00;78.10;;;;;;6242529;22;20254;-71
2022/03/04 02:43:25;;;;;;;29.05;20.33;;;2.90;77.60;;;;;;6243036;23;20500;-71
2022/03/04 02:46:11;;;;;;;36.03;21.48;;;2.90;78.70;;;;;;6245011;23;20500;-71
2022/03/04 02:48:56;;;;;;;31.52;19.35;;;2.80;78.70;;;;;;6244789;23;20218;-71
2022/03/04 02:51:42;;;;;;;34.83;22.60;;;2.70;79.10;;;;;;6242678;22;20210;-71
2022/03/04 02:54:28;;;;;;;31.98;21.08;;;2.60;79.70;;;;;;6244191;23;20170;-71
2022/03/04 02:57:15;;;;;;;36.25;22.92;;;2.50;80.40;;;;;;6244921;23;20668;-71
2022/03/04 03:00:00;;;;;;;35.67;20.27;;;2.40;82.60;;;;;;6242954;22;20209;-71
2022/03/04 03:02:46;;;;;;;32.40;21.25;;;2.30;84.10;;;;;;6244565;23;20170;-71
2022/03/04 03:05:32;;;;;;;33.08;23.00;;;2.40;84.20;;;;;;6244682;23;20179;-71
2022/03/04 03:08:17;;;;;;;38.83;21.05;;;2.40;84.20;;;;;;6244801;23;20169;-71
2022/03/04 03:11:03;;;;;;;32.63;20.80;;;2.30;84.10;;;;;;6241879;22;20743;-71
2022/03/04 03:13:50;;;;;;;35.03;21.45;;;2.20;84.60;;;;;;6244147;23;20170;-71
2022/03/04 03:16:36;;;;;;;39.33;23.35;;;2.10;85.70;;;;;;6244359;23;20267;-71
2022/03/04 03:19:22;;;;;;;35.33;21.10;;;2.00;86.50;;;;;;6243975;23;20169;-71
2022/03/04 03:22:07;;;;;;;31.63;21.23;;;2.00;86.90;;;;;;6243515;23;20217;-71
2022/03/04 03:24:53;;;;;;;33.25;20.75;;;1.90;87.10;;;;;;6244124;23;20401;-71
2022/03/04 03:27:39;;;;;;;31.25;19.63;;;1.80;88.90;;;;;;6244534;23;20180;-71
2022/03/04 03:30:26;;;;;;;34.92;21.30;;;1.70;88.90;;;;;;6242297;22;20248;-71
2022/03/04 03:33:12;;;;;;;34.30;22.67;;;1.80;88.40;;;;;;6241986;23;20171;-71
2022/03/04 03:35:57;;;;;;;33.40;21.80;;;1.80;88.60;;;;;;6244363;23;20456;-71
2022/03/04 03:38:43;;;;;;;33.70;22.55;;;1.60;89.00;;;;;;6244034;23;20166;-71
2022/03/04 03:41:28;;;;;;;37.70;23.27;;;1.60;89.60;;;;;;6242179;22;20282;-71
2022/03/04 03:44:14;;;;;;;31.80;21.20;;;1.60;89.50;;;;;;6244141;23;20653;-71
2022/03/04 03:47:01;;;;;;;32.55;21.05;;;1.60;89.90;;;;;;6244863;23;20170;-71
2022/03/04 03:49:47;;;;;;;36.75;24.27;;;1.50;90.20;;;;;;6242526;22;20304;-71
2022/03/04 03:52:33;;;;;;;31.27;19.55;;;1.40;90.30;;;;;;6243967;23;20161;-71
2022/03/04 03:55:19;;;;;;;32.25;20.35;;;1.40;90.20;;;;;;6244162;23;20258;-71
2022/03/04 03:58:05;;;;;;;30.98;21.20;;;1.40;90.50;;;;;;6244448;23;20165;-71
2022/03/04 04:00:50;;;;;;;32.20;22.38;;;1.30;90.40;;;;;;6242141;22;20205;-71
2022/03/04 04:03:37;;;;;;;32.17;20.67;;;1.30;90.80;;;;;;6242814;23;20217;-71
2022/03/04 04:06:23;;;;;;;33.92;21.33;;;1.30;90.60;;;;;;6244069;23;20167;-71
2022/03/04 04:09:10;;;;;;;38.00;22.85;;;1.30;90.80;;;;;;6244204;23;20170;-71
2022/03/04 04:11:55;;;;;;;34.55;22.55;;;1.10;90.90;;;;;;6242200;23;20206;-71
2022/03/04 04:14:41;;;;;;;32.03;22.83;;;1.10;91.70;;;;;;6243680;23;20170;-71
2022/03/04 04:17:27;;;;;;;30.15;21.40;;;1.20;91.40;;;;;;6244187;23;20229;-71
2022/03/04 04:20:14;;;;;;;29.85;21.30;;;1.30;91.30;;;;;;6241439;22;20206;-71
2022/03/04 04:23:00;;;;;;;32.58;20.05;;;1.20;91.00;;;;;;6243883;23;20554;-71
2022/03/04 04:25:45;;;;;;;35.58;23.70;;;1.10;91.70;;;;;;6244037;23;20174;-71
2022/03/04 04:28:31;;;;;;;37.15;23.00;;;1.10;91.90;;;;;;6243745;23;20239;-71
2022/03/04 04:31:17;;;;;;;33.90;22.92;;;1.10;91.50;;;;;;6241684;22;20197;-71
2022/03/04 04:34:03;;;;;;;31.80;20.70;;;1.00;91.70;;;;;;6241156;23;20498;-71
2022/03/04 04:36:50;;;;;;;36.42;22.48;;;0.90;91.70;;;;;;6243335;23;20164;-71
2022/03/04 04:39:35;;;;;;;33.53;21.98;;;1.00;91.60;;;;;;6242291;22;20448;-71
2022/03/04 04:42:22;;;;;;;32.97;23.83;;;1.00;91.30;;;;;;6243417;23;20204;-71
2022/03/04 04:45:09;;;;;;;30.20;20.77;;;0.90;91.60;;;;;;6241567;23;20176;-71
2022/03/04 04:47:54;;;;;;;34.13;22.58;;;0.80;92.20;;;;;;6243510;23;20254;-71
2022/03/04 04:50:39;;;;;;;30.73;20.60;;;0.80;92.40;;;;;;6241242;22;20200;-71
2022/03/04 04:53:26;;;;;;;31.85;22.63;;;0.70;92.40;;;;;;6242942;23;20219;-71
2022/03/04 04:56:12;;;;;;;32.35;20.92;;;0.60;93.00;;;;;;6243858;23;20550;-71
2022/03/04 04:58:58;;;;;;;34.05;22.35;;;0.60;93.30;;;;;;6243030;23;20430;-71
2022/03/04 05:01:44;;;;;;;38.33;22.65;;;0.70;93.20;;;;;;6242720;22;20244;-71
2022/03/04 05:04:30;;;;;;;34.13;21.55;;;0.60;93.40;;;;;;6242907;23;20612;-71
2022/03/04 05:07:15;;;;;;;32.33;21.85;;;0.80;93.10;;;;;;6243735;23;20245;-71
2022/03/04 05:10:03;;;;;;;37.28;24.45;;;0.70;92.90;;;;;;6240743;22;20584;-71
2022/03/04 05:12:48;;;;;;;36.80;23.13;;;0.50;93.30;;;;;;6243553;23;20235;-71
2022/03/04 05:15:34;;;;;;;38.15;23.20;;;0.40;93.30;;;;;;6243421;23;20173;-71
2022/03/04 05:18:20;;;;;;;37.97;21.90;;;0.30;93.90;;;;;;6243264;23;20212;-71
2022/03/04 05:21:05;;;;;;;37.22;24.17;;;0.40;94.50;;;;;;6241917;22;20201;-71
2022/03/04 05:24:00;;;;;;;32.92;22.98;;;0.50;94.20;;;;;;6243030;23;20213;-71
2022/03/04 05:26:47;;;;;;;36.30;21.85;;;0.50;94.20;;;;;;6243216;23;20196;-71
2022/03/04 05:29:33;;;;;;;39.13;23.70;;;0.40;94.20;;;;;;6241457;22;20172;-71
2022/03/04 05:32:18;;;;;;;36.65;24.02;;;0.40;94.50;;;;;;6243027;23;20208;-71
2022/03/04 05:35:05;;;;;;;32.55;22.58;;;0.30;94.90;;;;;;6242581;23;20548;-71
2022/03/04 05:37:51;;;;;;;38.05;24.92;;;0.30;95.60;;;;;;6243249;23;20245;-71
2022/03/04 05:40:37;;;;;;;40.15;24.17;;;0.40;96.20;;;;;;6241352;22;20251;-71
2022/03/04 05:43:24;;;;;;;36.28;23.92;;;0.40;96.20;;;;;;6240993;23;20177;-71
2022/03/04 05:46:09;;;;;;;35.10;23.40;;;0.30;96.20;;;;;;6243503;23;20245;-71
2022/03/04 05:48:55;;;;;;;37.22;23.80;;;0.40;96.90;;;;;;6241152;23;20254;-71
2022/03/04 05:51:41;;;;;;;42.60;24.48;;;0.40;96.80;;;;;;6243158;22;20200;-71
2022/03/04 05:54:27;;;;;;;40.05;25.50;;;0.40;97.00;;;;;;6243218;23;20246;-71
2022/03/04 05:57:12;;;;;;;44.60;25.80;;;0.40;96.80;;;;;;6243325;23;20168;-71
2022/03/04 05:59:59;;;;;;;40.83;23.98;;;0.40;97.10;;;;;;6240483;22;20203;-71
2022/03/04 06:02:45;;;;;;;43.35;24.00;;;0.50;97.00;;;;;;6243416;23;20185;-71
2022/03/04 06:05:31;;;;;;;39.33;25.40;;;0.50;96.70;;;;;;6242812;23;20167;-71
2022/03/04 06:08:17;;;;;;;41.83;26.20;;;0.50;96.80;;;;;;6241408;23;20166;-71
2022/03/04 06:11:02;;;;;;;40.63;25.58;;;0.40;96.80;;;;;;6242839;22;20208;-71
2022/03/04 06:13:48;;;;;;;38.88;23.13;;;0.40;96.70;;;;;;6242900;23;20169;-71
2022/03/04 06:16:35;;;;;;;37.63;25.38;;;0.30;97.10;;;;;;6243827;23;20166;-71
2022/03/04 06:19:21;;;;;;;35.47;23.08;;;0.30;97.30;;;;;;6242862;23;20506;-71
2022/03/04 06:22:07;;;;;;;36.00;23.55;;;0.30;97.20;;;;;;6244723;23;20190;-71
2022/03/04 06:24:52;;;;;;;36.97;23.48;;;0.30;97.10;;;;;;6244370;23;20501;-71
2022/03/04 06:27:38;;;;;;;38.83;24.48;;;0.30;97.20;;;;;;6243690;23;20574;-71
2022/03/04 06:30:25;;;;;;;43.97;25.35;;;0.30;97.70;;;;;;6244841;22;20217;-71
2022/03/04 06:36:16;;;;;;;40.72;25.00;;;0.40;97.60;;;;;;6244820;23;20591;-71
2022/03/04 06:39:01;;;;;;;43.78;26.85;;;0.30;97.50;;;;;;6242257;23;20209;-71
2022/03/04 06:41:48;;;;;;;41.63;25.35;;;0.40;97.60;;;;;;6244606;22;20372;-71
2022/03/04 06:44:34;;;;;;;38.83;25.20;;;0.60;97.50;;;;;;6244798;23;20168;-71
2022/03/04 06:47:19;;;;;;;44.60;25.50;;;0.60;97.60;;;;;;6244034;23;20204;-71
2022/03/04 06:50:06;;;;;;;36.13;24.60;;;0.70;97.40;;;;;;6243993;22;20199;-71
2022/03/04 06:52:53;;;;;;;36.65;23.33;;;0.70;97.50;;;;;;6244941;23;20165;-71
2022/03/04 06:55:38;;;;;;;40.60;25.90;;;0.70;97.90;;;;;;6244733;23;20162;-71
2022/03/04 06:58:24;;;;;;;48.78;25.58;;;0.80;97.90;;;;;;6242387;23;20170;-71
2022/03/04 07:01:10;;;;;;;43.22;27.45;;;0.90;97.90;;;;;;6244440;22;20537;-71
2022/03/04 07:03:55;;;;;;;38.38;25.83;;;1.00;97.70;;;;;;6244333;23;20170;-71
2022/03/04 07:06:42;;;;;;;38.10;24.88;;;1.00;98.00;;;;;;6244042;23;20528;-71
2022/03/04 07:09:28;;;;;;;36.08;24.02;;;1.10;98.00;;;;;;6243511;23;20171;-71
2022/03/04 07:12:13;;;;;;;38.25;24.05;;;1.20;98.00;;;;;;6244713;23;20162;-71
2022/03/04 07:14:59;;;;;;;41.25;25.90;;;1.30;97.90;;;;;;6243519;23;20162;-71
2022/03/04 07:17:45;;;;;;;43.97;24.73;;;1.40;97.70;;;;;;6242541;23;20170;-70
2022/03/04 07:20:30;;;;;;;47.10;27.50;;;1.60;97.10;;;;;;6244201;22;20312;-71
2022/03/04 07:23:20;;;;;;;40.53;27.05;;;1.70;96.90;;;;;;6243629;23;20296;-71
2022/03/04 07:26:08;;;;;;;47.85;27.77;;;1.70;96.40;;;;;;6244177;23;20170;-71
2022/03/04 07:28:53;;;;;;;41.95;26.67;;;1.80;96.60;;;;;;6243188;23;20623;-71
2022/03/04 07:31:39;;;;;;;43.15;27.13;;;1.90;96.90;;;;;;6243639;22;20200;-72
2022/03/04 07:34:25;;;;;;;43.53;26.42;;;2.10;96.80;;;;;;6241855;23;20342;-71
2022/03/04 07:37:11;;;;;;;41.78;27.83;;;2.30;96.20;;;;;;6241682;23;20256;-71
2022/03/04 07:39:57;;;;;;;45.33;28.48;;;2.50;94.80;;;;;;6243732;22;20251;-71
2022/03/04 07:42:44;;;;;;;41.58;26.02;;;2.80;94.20;;;;;;6244153;23;20708;-71
2022/03/04 07:45:29;;;;;;;47.40;27.93;;;3.00;93.40;;;;;;6244505;23;20166;-72
2022/03/04 07:48:15;;;;;;;43.60;26.67;;;3.20;93.10;;;;;;6241912;23;20415;-72
2022/03/04 07:51:01;;;;;;;46.40;27.00;;;3.40;92.40;;;;;;6244081;22;20219;-72
2022/03/04 07:53:46;;;;;;;39.67;26.13;;;3.60;91.60;;;;;;6243578;23;20374;-71
2022/03/04 07:56:33;;;;;;;42.03;26.13;;;3.70;91.00;;;;;;6241838;23;20175;-71
2022/03/04 07:59:19;;;;;;;42.28;24.88;;;4.00;87.60;;;;;;6243752;23;20249;-71
2022/03/04 08:02:05;;;;;;;37.03;22.87;;;4.10;85.40;;;;;;6242042;23;20189;-71
2022/03/04 08:04:50;;;;;;;35.28;24.02;;;4.30;84.00;;;;;;6243281;23;20397;-71
2022/03/04 08:07:37;;;;;;;45.78;25.98;;;4.40;80.50;;;;;;6242097;23;20230;-72
2022/03/04 08:12:52;;;;;;;38.67;24.60;;;4.70;78.60;;;;;;6240587;22;20823;-69
2022/03/04 08:15:37;;;;;;;42.40;24.97;;;4.80;77.10;;;;;;6240998;23;20870;-69
2022/03/04 08:18:23;;;;;;;49.23;25.13;;;5.00;77.10;;;;;;6242902;23;20374;-70
2022/03/04 08:21:09;;;;;;;46.47;26.10;;;5.20;77.50;;;;;;6242734;22;21152;-70
2022/03/04 08:23:54;;;;;;;41.03;26.23;;;5.30;75.60;;;;;;6243228;23;20439;-69
2022/03/04 08:26:41;;;;;;;45.93;26.30;;;5.50;72.50;;;;;;6241033;23;20379;-70
2022/03/04 08:29:28;;;;;;;44.30;26.60;;;5.50;70.90;;;;;;6243234;23;20373;-71
2022/03/04 08:32:14;;;;;;;39.80;25.57;;;5.60;70.50;;;;;;6243169;22;20848;-70
2022/03/04 08:35:00;;;;;;;42.27;26.37;;;5.80;68.90;;;;;;6242871;23;20698;-69
2022/03/04 08:37:46;;;;;;;37.70;25.17;;;5.90;68.10;;;;;;6241458;23;20527;-70
2022/03/04 08:40:31;;;;;;;43.10;25.20;;;6.00;67.70;;;;;;6242986;22;20374;-71
2022/03/04 08:43:18;;;;;;;44.73;27.17;;;6.10;67.20;;;;;;6241229;23;20924;-70
2022/03/04 08:46:05;;;;;;;40.80;24.50;;;6.20;64.50;;;;;;6241533;23;20708;-70
2022/03/04 08:48:51;;;;;;;40.83;25.77;;;6.20;64.50;;;;;;6242084;23;20749;-71
2022/03/04 08:51:37;;;;;;;41.10;26.70;;;6.30;64.00;;;;;;6240327;22;20430;-71
2022/03/04 08:54:23;;;;;;;40.20;24.87;;;6.30;62.10;;;;;;6239884;23;20422;-71
2022/03/04 08:57:09;;;;;;;46.97;25.80;;;6.40;62.90;;;;;;6238159;23;20353;-70
2022/03/04 08:59:55;;;;;;;39.87;25.43;;;6.50;61.30;;;;;;6242087;23;20437;-70
2022/03/04 09:02:42;;;;;;;43.63;27.23;;;6.60;61.30;;;;;;6241681;22;20497;-71
2022/03/04 09:05:27;;;;;;;44.73;26.70;;;6.70;60.90;;;;;;6237159;23;20441;-70
2022/03/04 09:08:13;;;;;;;39.13;25.30;;;6.80;61.30;;;;;;6240109;23;20457;-70
2022/03/04 09:10:58;;;;;;;44.20;27.43;;;6.90;60.10;;;;;;6239900;22;20461;-71
2022/03/04 09:13:44;;;;;;;44.20;27.57;;;6.90;58.10;;;;;;6238227;23;20395;-69
2022/03/04 09:16:30;;;;;;;41.50;27.17;;;7.10;58.30;;;;;;6240512;23;20924;-69
2022/03/04 09:19:17;;;;;;;44.83;26.17;;;7.20;59.70;;;;;;6243200;23;20832;-70
2022/03/04 09:22:03;;;;;;;39.93;26.40;;;7.40;57.60;;;;;;6242475;22;20517;-70
2022/03/04 09:24:48;;;;;;;38.27;25.60;;;7.50;55.50;;;;;;6240401;23;20347;-69
2022/03/04 09:27:34;;;;;;;43.23;26.30;;;7.40;53.00;;;;;;6242621;23;20425;-70
2022/03/04 09:30:20;;;;;;;42.27;27.63;;;7.60;53.50;;;;;;6243080;23;20454;-69
2022/03/04 09:33:06;;;;;;;41.37;25.27;;;7.80;54.80;;;;;;6238654;23;20681;-69
2022/03/04 09:35:53;;;;;;;41.27;25.73;;;7.80;49.30;;;;;;6239795;23;21435;-70
2022/03/04 09:38:39;;;;;;;45.47;27.67;;;8.00;50.00;;;;;;6242754;23;20919;-70
2022/03/04 09:41:25;;;;;;;38.10;25.27;;;8.10;50.70;;;;;;6243214;22;20406;-69
2022/03/04 09:44:12;;;;;;;39.17;24.70;;;8.20;47.70;;;;;;6240179;23;20820;-69
2022/03/04 09:47:00;;;;;;;36.53;23.00;;;8.40;46.70;;;;;;6242719;23;20342;-69
2022/03/04 09:49:46;;;;;;;37.17;24.80;;;8.50;47.20;;;;;;6242725;23;20341;-70
2022/03/04 09:52:33;;;;;;;40.50;24.70;;;8.70;46.40;;;;;;6244493;22;20407;-70
2022/03/04 09:55:18;;;;;;;33.93;23.03;;;8.80;46.20;;;;;;6241914;23;20514;-69
2022/03/04 09:58:09;;;;;;;35.30;22.93;;;8.90;46.00;;;;;;6244794;23;20848;-70
2022/03/04 10:00:54;;;;;;;37.23;25.57;;;9.10;44.70;;;;;;6244720;22;20747;-70
2022/03/04 10:03:45;;;;;;;35.13;23.83;;;9.10;44.50;;;;;;6244372;23;20413;-70
2022/03/04 10:06:32;;;;;;;35.50;24.50;;;9.30;43.10;;;;;;6243858;23;20409;-69
2022/03/04 10:09:36;;;;;;;33.63;22.07;;;9.50;42.70;;;;;;6244803;23;20349;-70
2022/03/04 10:12:22;;;;;;;40.33;21.93;;;9.60;41.70;;;;;;6244891;22;20408;-70
2022/03/04 10:15:09;;;;;;;28.53;20.07;;;9.60;41.90;;;;;;6238996;23;20341;-70
2022/03/04 10:18:01;;;;;;;31.37;19.90;;;9.70;38.10;;;;;;6243622;23;20457;-70
2022/03/04 10:20:47;;;;;;;29.47;19.63;;;9.80;37.40;;;;;;6244631;22;20430;-69
2022/03/04 10:23:33;;;;;;;29.10;19.37;;;10.00;36.50;;;;;;6244360;23;20947;-69
2022/03/04 10:26:28;;;;;;;35.63;19.77;;;10.20;34.50;;;;;;6243622;23;20373;-70
2022/03/04 10:29:19;;;;;;;28.40;18.80;;;10.30;34.10;;;;;;6244755;23;20758;-69
2022/03/04 10:32:13;;;;;;;26.33;16.93;;;10.30;34.20;;;;;;6244534;22;20381;-70
2022/03/04 10:35:00;;;;;;;30.47;20.07;;;10.40;33.30;;;;;;6240938;23;20375;-69
2022/03/04 10:37:48;;;;;;;28.90;18.33;;;10.60;32.80;;;;;;6244479;23;20345;-70
2022/03/04 10:40:36;;;;;;;27.77;17.27;;;10.80;32.20;;;;;;6244482;22;20755;-69
2022/03/04 10:43:31;;;;;;;23.17;15.13;;;10.90;30.00;;;;;;6240250;23;20466;-69
2022/03/04 10:46:18;;;;;;;25.47;16.57;;;11.20;30.10;;;;;;6244476;23;20374;-69
2022/03/04 10:49:04;;;;;;;22.37;15.27;;;11.30;30.30;;;;;;6244121;23;20375;-70
2022/03/04 10:51:49;;;;;;;25.13;15.90;;;11.30;29.90;;;;;;6244302;22;20411;-70
2022/03/04 10:54:35;;;;;;;19.23;13.50;;;11.50;30.10;;;;;;6241564;23;20347;-69
2022/03/04 10:57:21;;;;;;;20.80;14.17;;;11.70;29.40;;;;;;6244158;23;20346;-70
2022/03/04 11:00:09;;;;;;;21.60;12.83;;;11.60;28.30;;;;;;6244136;23;20428;-70
2022/03/04 11:02:55;;;;;;;21.47;14.00;;;11.70;28.80;;;;;;6241342;23;20738;-69
2022/03/04 11:05:41;;;;;;;20.77;14.63;;;11.80;29.50;;;;;;6244095;23;20353;-69
2022/03/04 11:08:28;;;;;;;20.87;14.53;;;12.00;27.80;;;;;;6244133;23;20828;-69
2022/03/04 11:11:14;;;;;;;21.43;12.93;;;12.10;27.40;;;;;;6243685;22;20427;-69
2022/03/04 11:14:00;;;;;;;19.53;13.00;;;12.20;26.40;;;;;;6241901;23;20696;-69
2022/03/04 11:16:49;;;;;;;17.90;11.97;;;12.20;27.50;;;;;;6243885;23;20704;-70
2022/03/04 11:19:35;;;;;;;23.80;14.63;;;12.30;26.90;;;;;;6244172;23;20377;-70
2022/03/04 11:22:21;;;;;;;16.70;11.70;;;12.20;25.40;;;;;;6242080;22;20419;-69
2022/03/04 11:25:10;;;;;;;21.33;12.67;;;12.20;25.50;;;;;;6242933;23;20379;-69
2022/03/04 11:27:58;;;;;;;24.40;14.23;;;12.30;24.80;;;;;;6243116;23;20352;-70
2022/03/04 11:30:46;;;;;;;21.60;13.90;;;12.30;25.70;;;;;;6244601;22;20351;-70
2022/03/04 11:33:35;;;;;;;19.20;12.57;;;12.40;25.80;;;;;;6240034;23;20354;-69
2022/03/04 11:36:22;;;;;;;24.23;14.23;;;12.40;26.10;;;;;;6244533;23;20451;-69
2022/03/04 11:39:14;;;;;;;19.90;13.40;;;12.50;26.10;;;;;;6244335;23;20446;-69
2022/03/04 11:42:12;;;;;;;20.17;12.43;;;12.70;25.60;;;;;;6242411;22;20419;-69
2022/03/04 11:44:59;;;;;;;21.17;13.80;;;12.80;25.50;;;;;;6242436;23;20347;-69
2022/03/04 11:47:46;;;;;;;22.03;14.00;;;12.90;24.70;;;;;;6244462;23;20343;-70
2022/03/04 11:50:35;;;;;;;19.63;14.07;;;12.90;24.30;;;;;;6243993;22;20482;-70
2022/03/04 11:53:22;;;;;;;22.80;15.30;;;13.00;24.40;;;;;;6241874;23;20425;-69
2022/03/04 11:56:12;;;;;;;24.53;14.93;;;13.10;24.60;;;;;;6243883;23;20347;-70
2022/03/04 11:59:19;;;;;;;23.03;14.50;;;13.30;24.00;;;;;;6244319;23;20506;-70
2022/03/04 12:02:05;;;;;;;26.50;16.97;;;13.40;24.30;;;;;;6241893;22;20408;-69
2022/03/04 12:05:30;;;;;;;28.57;16.80;;;13.30;24.50;;;;;;6243767;23;21092;-70
2022/03/04 12:08:17;;;;;;;22.33;15.20;;;13.20;25.50;;;;;;6244096;23;20377;-70
2022/03/04 12:11:03;;;;;;;27.00;16.27;;;13.30;24.50;;;;;;6240176;22;20622;-69
2022/03/04 12:13:49;;;;;;;25.00;16.10;;;13.30;25.60;;;;;;6241765;23;20368;-69
2022/03/04 12:16:47;;;;;;;29.50;17.80;;;13.50;24.90;;;;;;6243265;23;21203;-69
2022/03/04 12:19:35;;;;;;;21.37;16.07;;;13.50;24.50;;;;;;6243892;23;20369;-69
2022/03/04 12:22:26;;;;;;;28.70;15.90;;;13.60;24.10;;;;;;6241216;22;20412;-69
2022/03/04 12:25:13;;;;;;;23.53;15.67;;;13.40;24.20;;;;;;6243193;23;20430;-69
2022/03/04 12:27:59;;;;;;;19.00;12.20;;;13.50;23.90;;;;;;6243151;23;20916;-69
2022/03/04 12:30:44;;;;;;;18.23;12.50;;;13.40;23.60;;;;;;6242806;22;20375;-69
2022/03/04 12:33:31;;;;;;;21.60;13.57;;;13.50;22.80;;;;;;6240098;23;20373;-69
2022/03/04 12:36:18;;;;;;;18.80;13.50;;;13.80;24.00;;;;;;6243677;23;20393;-71
2022/03/04 12:39:05;;;;;;;19.80;12.57;;;13.90;23.00;;;;;;6243126;23;20380;-71
2022/03/04 12:41:55;;;;;;;20.33;13.40;;;14.10;23.20;;;;;;6241338;22;20749;-71
2022/03/04 12:44:42;;;;;;;23.40;14.40;;;14.20;21.90;;;;;;6242603;23;20917;-70
2022/03/04 12:47:28;;;;;;;17.87;12.80;;;14.00;22.10;;;;;;6243497;23;20466;-71
2022/03/04 12:50:15;;;;;;;16.70;11.37;;;14.00;21.50;;;;;;6243252;23;20351;-71
2022/03/04 12:53:18;;;;;;;18.60;11.83;;;14.10;21.60;;;;;;6242148;23;20422;-71
2022/03/04 12:56:04;;;;;;;15.27;10.40;;;14.00;21.50;;;;;;6243136;23;20350;-71
2022/03/04 12:58:53;;;;;;;15.40;10.50;;;13.90;20.30;;;;;;6242914;23;20473;-71
2022/03/04 13:01:44;;;;;;;18.90;13.23;;;13.70;21.30;;;;;;6240846;22;20388;-70
2022/03/04 13:04:30;;;;;;;27.23;13.97;;;13.80;22.30;;;;;;6242834;23;20420;-71
2022/03/04 13:07:20;;;;;;;15.47;10.70;;;14.00;21.50;;;;;;6242882;23;20967;-71
2022/03/04 13:10:07;;;;;;;21.43;10.83;;;14.00;21.50;;;;;;6242456;23;20357;-71
2022/03/04 13:12:58;;;;;;;14.17;10.97;;;14.00;21.00;;;;;;6242104;23;20705;-71
2022/03/04 13:15:47;;;;;;;19.87;12.40;;;14.10;22.50;;;;;;6243269;23;20348;-71
2022/03/04 13:18:33;;;;;;;18.70;11.30;;;14.40;21.80;;;;;;6242916;23;20400;-70
2022/03/04 13:21:20;;;;;;;18.47;11.97;;;14.60;21.00;;;;;;6241123;22;20758;-71
2022/03/04 13:24:11;;;;;;;20.87;12.37;;;14.70;21.00;;;;;;6242450;23;20919;-71
2022/03/04 13:26:59;;;;;;;29.47;18.70;;;14.70;22.10;;;;;;6245298;23;20373;-70
2022/03/04 13:29:46;;;;;;;38.50;24.30;;;14.60;22.00;;;;;;6244059;23;20452;-70
2022/03/04 13:32:42;;;;;;;22.17;12.57;;;14.60;22.00;;;;;;6240291;22;20471;-71
2022/03/04 13:35:28;;;;;;;18.90;11.60;;;14.50;21.90;;;;;;6241212;23;20439;-71
2022/03/04 13:38:21;;;;;;;30.97;14.60;;;14.60;22.00;;;;;;6241675;23;20425;-71
2022/03/04 13:41:21;;;;;;;17.80;11.33;;;14.50;21.90;;;;;;6239311;22;20950;-71
2022/03/04 13:44:08;;;;;;;17.10;12.43;;;14.50;21.90;;;;;;6240598;23;20438;-71
2022/03/04 13:47:06;;;;;;;18.83;12.90;;;14.50;21.90;;;;;;6241287;23;20357;-71
2022/03/04 13:49:53;;;;;;;17.30;11.90;;;14.60;22.00;;;;;;6239924;23;20400;-70
2022/03/04 13:52:55;;;;;;;17.60;11.00;;;14.70;21.20;;;;;;6241275;22;20830;-71
2022/03/04 13:55:43;;;;;;;18.73;11.87;;;14.80;22.10;;;;;;6241875;23;20906;-70
2022/03/04 13:58:31;;;;;;;21.33;11.93;;;14.60;21.00;;;;;;6243293;23;20410;-71
2022/03/04 14:01:21;;;;;;;18.77;11.40;;;14.50;21.90;;;;;;6241156;22;20747;-71
2022/03/04 14:04:11;;;;;;;21.60;13.23;;;14.70;21.70;;;;;;6239741;23;20422;-71
2022/03/04 14:06:58;;;;;;;15.37;11.23;;;14.70;22.10;;;;;;6241794;23;20353;-71
2022/03/04 14:09:50;;;;;;;18.47;11.53;;;14.70;22.10;;;;;;6239035;23;20408;-71
2022/03/04 14:12:35;;;;;;;21.90;10.10;;;14.50;21.90;;;;;;6241445;22;20948;-71
2022/03/04 14:15:21;;;;;;;15.70;11.13;;;14.40;21.10;;;;;;6241133;23;20506;-71
2022/03/04 14:18:08;;;;;;;16.47;10.20;;;14.20;21.60;;;;;;6242232;23;20381;-71
2022/03/04 14:20:57;;;;;;;16.03;9.80;;;14.20;20.90;;;;;;6240098;22;20536;-71